createdAt,value
2018-11-28T00:00:47.697Z,26.00
2018-11-28T00:04:50.773Z,21.83
2018-11-28T00:08:53.645Z,22.80
2018-11-28T00:12:56.520Z,23.13
2018-11-28T00:16:59.644Z,23.67
2018-11-28T00:21:02.570Z,23.80
2018-11-28T00:25:05.675Z,23.00
2018-11-28T00:29:08.537Z,21.40
2018-11-28T00:33:11.432Z,22.90
2018-11-28T00:37:14.501Z,20.87
2018-11-28T00:41:17.377Z,23.23
2018-11-28T00:45:21.477Z,22.20
2018-11-28T00:49:24.363Z,24.33
2018-11-28T00:53:27.217Z,22.73
2018-11-28T00:57:30.149Z,22.00
2018-11-28T01:01:33.041Z,21.80
2018-11-28T01:05:36.118Z,21.87
2018-11-28T01:09:38.977Z,20.40
2018-11-28T01:13:41.861Z,21.87
2018-11-28T01:17:44.811Z,20.50
2018-11-28T01:21:47.897Z,20.87
2018-11-28T01:25:50.759Z,19.57
2018-11-28T01:29:53.637Z,19.77
2018-11-28T01:33:56.701Z,20.23
2018-11-28T01:37:59.577Z,20.07
2018-11-28T01:42:02.485Z,20.77
2018-11-28T01:46:05.413Z,21.07
2018-11-28T01:50:10.646Z,19.97
2018-11-28T01:54:13.521Z,20.20
2018-11-28T01:58:16.417Z,19.43
2018-11-28T02:02:19.284Z,20.70
2018-11-28T02:06:22.349Z,19.30
2018-11-28T02:10:25.228Z,20.07
2018-11-28T02:14:28.314Z,19.83
2018-11-28T02:18:31.430Z,19.37
2018-11-28T02:22:34.291Z,19.43
2018-11-28T02:26:37.165Z,20.90
2018-11-28T02:30:40.030Z,20.27
2018-11-28T02:34:42.969Z,19.10
2018-11-28T02:38:45.872Z,20.80
2018-11-28T02:42:49.132Z,20.67
2018-11-28T02:46:52.210Z,18.50
2018-11-28T02:50:55.090Z,19.80
2018-11-28T02:54:58.158Z,18.23
2018-11-28T02:59:01.258Z,20.57
2018-11-28T03:03:04.117Z,19.30
2018-11-28T03:07:07.005Z,19.27
2018-11-28T03:11:09.872Z,19.20
2018-11-28T03:15:14.242Z,19.63
2018-11-28T03:19:17.314Z,21.53
2018-11-28T03:23:20.241Z,18.40
2018-11-28T03:27:23.117Z,21.00
2018-11-28T03:31:25.990Z,19.60
2018-11-28T03:35:28.859Z,18.63
2018-11-28T03:39:31.725Z,21.93
2018-11-28T03:43:34.590Z,18.93
2018-11-28T03:47:37.469Z,19.90
2018-11-28T03:51:40.325Z,21.53
2018-11-28T03:55:43.201Z,19.37
2018-11-28T03:59:46.098Z,20.90
2018-11-28T04:03:49.214Z,20.60
2018-11-28T04:07:52.074Z,20.67
2018-11-28T04:11:54.946Z,19.40
2018-11-28T04:15:57.823Z,21.00
2018-11-28T04:20:00.720Z,19.50
2018-11-28T04:24:03.641Z,19.80
2018-11-28T04:28:06.555Z,18.50
2018-11-28T04:32:09.417Z,20.10
2018-11-28T04:36:12.285Z,21.10
2018-11-28T04:40:15.594Z,19.20
2018-11-28T04:44:18.473Z,19.00
2018-11-28T04:48:21.337Z,21.33
2018-11-28T04:52:24.225Z,19.17
2018-11-28T04:56:27.103Z,21.43
2018-11-28T05:00:30.195Z,19.93
2018-11-28T05:04:33.048Z,20.40
2018-11-28T05:08:36.148Z,20.60
2018-11-28T05:12:39.266Z,20.10
2018-11-28T05:16:42.153Z,22.00
2018-11-28T05:20:45.258Z,22.10
2018-11-28T05:24:48.129Z,22.13
2018-11-28T05:28:50.989Z,21.27
2018-11-28T05:32:53.877Z,21.30
2018-11-28T05:36:56.737Z,20.13
2018-11-28T05:40:59.614Z,21.03
2018-11-28T05:45:02.477Z,21.80
2018-11-28T05:49:05.411Z,21.57
2018-11-28T05:53:08.486Z,22.00
2018-11-28T05:57:11.356Z,21.53
2018-11-28T06:01:14.228Z,21.30
2018-11-28T06:05:17.314Z,21.47
2018-11-28T06:09:20.185Z,21.63
2018-11-28T06:13:23.126Z,22.67
2018-11-28T06:17:25.993Z,21.57
2018-11-28T06:21:28.887Z,20.03
2018-11-28T06:25:32.016Z,21.17
2018-11-28T06:29:34.885Z,19.70
2018-11-28T06:33:37.959Z,21.77
2018-11-28T06:37:41.282Z,21.83
2018-11-28T06:41:44.141Z,21.20
2018-11-28T06:45:47.226Z,19.80
2018-11-28T06:49:50.085Z,22.63
2018-11-28T06:53:52.989Z,20.47
2018-11-28T06:57:55.853Z,20.17
2018-11-28T07:01:58.730Z,21.60
2018-11-28T07:06:01.806Z,23.03
2018-11-28T07:10:06.625Z,21.60
2018-11-28T07:14:09.521Z,22.50
2018-11-28T07:18:24.142Z,22.00
2018-11-28T07:22:27.093Z,22.40
2018-11-28T07:26:29.972Z,21.37
2018-11-28T07:30:37.698Z,21.10
2018-11-28T07:34:36.023Z,20.63
2018-11-28T07:38:38.891Z,23.97
2018-11-28T07:42:42.589Z,20.00
2018-11-28T07:46:45.449Z,20.53
2018-11-28T07:50:48.329Z,22.50
2018-11-28T07:54:51.410Z,18.73
2018-11-28T07:58:54.495Z,23.00
2018-11-28T08:02:57.357Z,21.03
2018-11-28T08:07:00.233Z,20.30
2018-11-28T08:11:03.553Z,19.67
2018-11-28T08:15:07.037Z,19.97
2018-11-28T08:19:09.901Z,21.00
2018-11-28T08:23:12.793Z,20.30
2018-11-28T08:27:15.666Z,19.30
2018-11-28T08:31:18.537Z,20.90
2018-11-28T08:35:21.638Z,23.37
2018-11-28T08:39:24.509Z,21.07
2018-11-28T08:43:27.582Z,23.30
2018-11-28T08:47:30.465Z,21.80
2018-11-28T08:51:33.348Z,20.43
2018-11-28T08:55:36.210Z,23.33
2018-11-28T08:59:39.282Z,18.47
2018-11-28T09:03:42.165Z,21.97
2018-11-28T09:07:45.029Z,22.33
2018-11-28T09:11:47.909Z,20.00
2018-11-28T09:15:50.776Z,21.60
2018-11-28T09:19:53.870Z,20.37
2018-11-28T09:23:56.758Z,19.90
2018-11-28T09:27:59.878Z,21.60
2018-11-28T09:32:02.733Z,20.00
2018-11-28T09:36:05.616Z,20.40
2018-11-28T09:40:11.137Z,21.63
2018-11-28T09:44:14.023Z,19.20
2018-11-28T09:48:16.887Z,21.83
2018-11-28T09:52:19.768Z,21.83
2018-11-28T09:56:22.841Z,20.77
2018-11-28T10:00:26.201Z,21.67
2018-11-28T10:04:29.065Z,21.77
2018-11-28T10:08:31.959Z,19.50
2018-11-28T10:12:38.633Z,21.17
2018-11-28T10:16:41.588Z,18.97
2018-11-28T10:20:44.370Z,19.17
2018-11-28T10:24:47.270Z,20.80
2018-11-28T10:28:50.141Z,20.90
2018-11-28T10:32:53.202Z,18.80
2018-11-28T10:36:56.087Z,18.10
2018-11-28T10:40:58.965Z,21.60
2018-11-28T10:45:01.837Z,20.43
2018-11-28T10:49:04.734Z,20.63
2018-11-28T10:53:07.809Z,18.37
2018-11-28T10:57:10.689Z,21.30
2018-11-28T11:01:19.008Z,16.97
2018-11-28T11:05:27.381Z,19.63
2018-11-28T11:09:35.905Z,21.20
2018-11-28T11:13:45.934Z,19.60
2018-11-28T11:17:48.794Z,19.60
2018-11-28T11:21:51.669Z,20.33
2018-11-28T11:25:54.565Z,18.23
2018-11-28T11:29:57.478Z,18.80
2018-11-28T11:34:00.329Z,18.93
2018-11-28T11:38:03.205Z,20.13
2018-11-28T11:42:06.461Z,18.87
2018-11-28T11:46:09.334Z,21.23
2018-11-28T11:50:12.685Z,20.97
2018-11-28T11:54:15.557Z,20.73
2018-11-28T11:58:18.425Z,19.37
2018-11-28T12:02:21.313Z,18.50
2018-11-28T12:06:24.205Z,20.27
2018-11-28T12:10:27.090Z,18.27
2018-11-28T12:14:29.954Z,19.47
2018-11-28T12:18:32.873Z,18.83
2018-11-28T12:22:35.910Z,18.90
2018-11-28T12:26:38.817Z,20.20
2018-11-28T12:30:41.681Z,20.50
2018-11-28T12:34:50.330Z,21.80
2018-11-28T12:38:48.466Z,22.90
2018-11-28T12:42:51.846Z,19.00
2018-11-28T12:46:54.706Z,20.47
2018-11-28T12:50:57.585Z,21.30
2018-11-28T12:55:00.449Z,20.47
2018-11-28T12:59:03.543Z,20.67
2018-11-28T13:03:07.181Z,23.70
2018-11-28T13:07:10.270Z,23.23
2018-11-28T13:11:13.138Z,21.40
2018-11-28T13:15:17.285Z,24.23
2018-11-28T13:19:20.174Z,23.00
2018-11-28T13:23:23.261Z,20.77
2018-11-28T13:27:26.378Z,20.73
2018-11-28T13:31:29.261Z,22.03
2018-11-28T13:35:32.156Z,22.63
2018-11-28T13:39:35.009Z,21.13
2018-11-28T13:43:37.873Z,21.57
2018-11-28T13:47:41.127Z,21.37
2018-11-28T13:51:44.202Z,21.67
2018-11-28T13:56:29.830Z,21.33
2018-11-28T13:59:53.769Z,21.13
2018-11-28T14:03:56.858Z,19.07
2018-11-28T14:07:59.721Z,19.33
2018-11-28T14:12:02.599Z,20.33
2018-11-28T14:16:05.473Z,20.20
2018-11-28T14:20:09.006Z,20.40
2018-11-28T14:24:11.868Z,21.23
2018-11-28T14:28:14.760Z,19.97
2018-11-28T14:32:17.838Z,21.23
2018-11-28T14:36:20.717Z,20.90
2018-11-28T14:40:23.854Z,19.10
2018-11-28T14:44:26.737Z,19.07
2018-11-28T14:48:29.601Z,19.70
2018-11-28T14:52:32.493Z,18.27
2018-11-28T14:56:35.353Z,18.93
2018-11-28T15:00:38.245Z,18.73
2018-11-28T15:04:41.318Z,20.50
2018-11-28T15:08:44.225Z,19.83
2018-11-28T15:12:47.085Z,18.77
2018-11-28T15:16:49.965Z,17.43
2018-11-28T15:20:52.837Z,17.30
2018-11-28T15:24:55.721Z,18.13
2018-11-28T15:28:59.341Z,16.23
2018-11-28T15:33:02.230Z,15.90
2018-11-28T15:37:06.354Z,16.13
2018-11-28T15:41:09.237Z,15.20
2018-11-28T15:45:12.108Z,15.13
2018-11-28T15:49:14.989Z,14.87
2018-11-28T15:53:17.853Z,13.00
2018-11-28T15:57:20.729Z,14.40
2018-11-28T16:01:23.621Z,14.20
2018-11-28T16:05:26.497Z,13.97
2018-11-28T16:09:35.061Z,14.10
2018-11-28T16:13:37.958Z,14.67
2018-11-28T16:17:41.037Z,14.43
2018-11-28T16:21:43.918Z,15.37
2018-11-28T16:25:46.801Z,14.27
2018-11-28T16:29:49.689Z,13.37
2018-11-28T16:33:52.549Z,13.40
2018-11-28T16:37:55.666Z,15.50
2018-11-28T16:41:58.530Z,15.43
2018-11-28T16:46:01.611Z,14.77
2018-11-28T16:50:04.601Z,14.57
2018-11-28T16:54:07.502Z,14.80
2018-11-28T16:58:10.361Z,14.47
2018-11-28T17:02:13.229Z,16.43
2018-11-28T17:06:16.361Z,16.43
2018-11-28T17:10:22.102Z,15.43
2018-11-28T17:14:24.957Z,14.57
2018-11-28T17:18:27.853Z,17.00
2018-11-28T17:22:30.937Z,17.50
2018-11-28T17:26:33.813Z,15.83
2018-11-28T17:30:36.732Z,18.87
2018-11-28T17:34:39.834Z,19.07
2018-11-28T17:38:42.717Z,19.27
2018-11-28T17:42:47.046Z,16.57
2018-11-28T17:46:49.913Z,17.03
2018-11-28T17:50:52.777Z,16.20
2018-11-28T17:54:55.637Z,16.27
2018-11-28T17:58:58.721Z,17.83
2018-11-28T18:03:01.580Z,18.70
2018-11-28T18:07:04.725Z,17.60
2018-11-28T18:11:10.134Z,20.97
2018-11-28T18:15:13.013Z,18.57
2018-11-28T18:19:16.086Z,18.73
2018-11-28T18:23:18.989Z,17.20
2018-11-28T18:27:21.865Z,18.10
2018-11-28T18:31:24.988Z,17.67
2018-11-28T18:35:27.841Z,19.53
2018-11-28T18:39:30.922Z,19.20
2018-11-28T18:43:33.789Z,20.03
2018-11-28T18:47:36.665Z,20.20
2018-11-28T18:51:39.744Z,20.37
2018-11-28T18:55:42.644Z,20.20
2018-11-28T18:59:45.734Z,19.63
2018-11-28T19:03:48.631Z,22.10
2018-11-28T19:07:51.490Z,20.43
2018-11-28T19:11:54.467Z,21.80
2018-11-28T19:15:57.289Z,23.17
2018-11-28T19:20:00.389Z,23.37
2018-11-28T19:24:03.257Z,25.17
2018-11-28T19:28:06.190Z,23.10
2018-11-28T19:32:09.235Z,25.13
2018-11-28T19:36:12.117Z,24.03
2018-11-28T19:40:19.857Z,23.03
2018-11-28T19:44:22.731Z,24.17
2018-11-28T19:48:25.593Z,25.70
2018-11-28T19:52:28.477Z,24.07
2018-11-28T19:56:31.348Z,25.73
2018-11-28T20:00:34.269Z,25.23
2018-11-28T20:04:37.126Z,25.07
2018-11-28T20:08:40.053Z,26.50
2018-11-28T20:12:43.125Z,24.47
2018-11-28T20:16:45.998Z,26.47
2018-11-28T20:20:49.066Z,27.60
2018-11-28T20:24:51.946Z,26.87
2018-11-28T20:28:54.813Z,25.90
2018-11-28T20:32:57.713Z,26.07
2018-11-28T20:37:00.782Z,27.27
2018-11-28T20:41:03.693Z,27.67
2018-11-28T20:45:07.386Z,27.27
2018-11-28T20:49:10.461Z,25.10
2018-11-28T20:53:14.807Z,26.87
2018-11-28T20:57:18.302Z,25.87
2018-11-28T21:01:21.139Z,25.07
2018-11-28T21:05:23.965Z,25.30
2018-11-28T21:09:26.837Z,24.73
2018-11-28T21:13:29.966Z,28.10
2018-11-28T21:17:32.833Z,25.17
2018-11-28T21:21:35.713Z,26.93
2018-11-28T21:25:38.787Z,26.50
2018-11-28T21:29:41.697Z,24.07
2018-11-28T21:33:44.585Z,25.80
2018-11-28T21:37:47.461Z,23.77
2018-11-28T21:41:50.539Z,24.17
2018-11-28T21:45:53.618Z,24.37
2018-11-28T21:49:56.470Z,23.70
2018-11-28T21:53:59.571Z,20.57
2018-11-28T21:58:02.445Z,18.93
2018-11-28T22:02:05.933Z,20.80
2018-11-28T22:06:08.793Z,22.30
2018-11-28T22:10:27.358Z,20.00
2018-11-28T22:14:30.229Z,19.80
2018-11-28T22:18:33.110Z,20.40
2018-11-28T22:22:35.969Z,20.07
2018-11-28T22:26:39.062Z,19.90
2018-11-28T22:30:41.969Z,20.50
2018-11-28T22:34:45.082Z,20.20
2018-11-28T22:38:48.157Z,18.70
2018-11-28T22:42:51.044Z,18.50
2018-11-28T22:46:54.114Z,19.10
2018-11-28T22:50:57.020Z,17.63
2018-11-28T22:54:59.884Z,18.33
2018-11-28T22:59:02.769Z,18.77
2018-11-28T23:03:07.345Z,19.33
2018-11-28T23:07:10.221Z,19.63
2018-11-28T23:11:13.294Z,18.20
2018-11-28T23:15:16.277Z,18.70
2018-11-28T23:19:19.361Z,17.47
2018-11-28T23:23:22.234Z,16.77
2018-11-28T23:27:25.086Z,18.43
2018-11-28T23:31:28.174Z,17.47
2018-11-28T23:35:31.151Z,17.80
2018-11-28T23:39:34.081Z,17.53
2018-11-28T23:43:36.901Z,19.13
2018-11-28T23:47:39.785Z,18.90
2018-11-28T23:51:42.645Z,16.53
2018-11-28T23:55:45.526Z,16.80
2018-11-28T23:59:48.397Z,18.13
